createdAt,value
2023-08-06T04:57:18.437Z,14.86
2023-08-06T05:00:06.314Z,14.74
2023-08-06T05:02:53.328Z,14.60
2023-08-06T05:05:42.557Z,14.58
2023-08-06T05:08:30.533Z,14.39
2023-08-06T05:11:17.385Z,14.56
2023-08-06T05:14:04.264Z,14.71
2023-08-06T05:16:51.132Z,14.80
2023-08-06T05:19:38.015Z,14.78
2023-08-06T05:22:24.882Z,15.58
2023-08-06T05:25:14.760Z,15.10
2023-08-06T05:28:02.620Z,15.14
2023-08-06T05:30:49.557Z,15.31
2023-08-06T05:33:36.457Z,15.21
2023-08-06T05:36:23.362Z,15.48
2023-08-06T05:39:10.190Z,15.17
2023-08-06T05:41:57.128Z,15.08
2023-08-06T05:44:44.220Z,14.78
2023-08-06T05:47:31.081Z,15.34
2023-08-06T05:50:18.542Z,15.22
2023-08-06T05:53:05.591Z,15.25
2023-08-06T05:55:52.453Z,15.26
2023-08-06T05:58:39.361Z,15.41
2023-08-06T06:01:26.833Z,15.36
2023-08-06T06:04:13.830Z,15.47
2023-08-06T06:07:00.999Z,15.16
2023-08-06T06:09:47.832Z,15.13
2023-08-06T06:12:34.745Z,15.54
2023-08-06T06:15:21.562Z,15.51
2023-08-06T06:18:08.449Z,15.13
2023-08-06T06:20:55.336Z,14.87
2023-08-06T06:23:42.174Z,15.03
2023-08-06T06:26:29.471Z,15.12
2023-08-06T06:29:16.332Z,15.00
2023-08-06T06:32:03.243Z,15.21
2023-08-06T06:34:50.147Z,15.14
2023-08-06T06:37:37.103Z,15.21
2023-08-06T06:40:23.993Z,15.14
2023-08-06T06:43:10.852Z,15.01
2023-08-06T06:45:59.549Z,14.96
2023-08-06T06:48:46.555Z,14.90
2023-08-06T06:51:33.751Z,14.81
2023-08-06T06:54:20.628Z,15.06
2023-08-06T06:57:07.557Z,15.00
2023-08-06T06:59:54.441Z,14.82
2023-08-06T07:02:41.770Z,14.86
2023-08-06T07:05:28.804Z,14.91
2023-08-06T07:08:15.716Z,14.95
2023-08-06T07:11:04.038Z,15.29
2023-08-06T07:13:57.123Z,15.33
2023-08-06T07:16:44.182Z,15.27
2023-08-06T07:19:31.147Z,15.50
2023-08-06T07:22:17.971Z,15.51
2023-08-06T07:25:05.281Z,15.33
2023-08-06T07:27:52.191Z,15.57
2023-08-06T07:30:42.697Z,15.35
2023-08-06T07:33:29.728Z,15.84
2023-08-06T07:36:16.800Z,16.12
2023-08-06T07:39:05.412Z,16.05
2023-08-06T07:41:52.779Z,16.10
2023-08-06T07:44:40.135Z,16.31
2023-08-06T07:47:28.341Z,16.50
2023-08-06T07:50:15.265Z,16.32
2023-08-06T07:53:02.148Z,16.37
2023-08-06T07:55:54.416Z,16.00
2023-08-06T07:58:41.402Z,16.79
2023-08-06T08:01:28.296Z,17.14
2023-08-06T08:04:15.281Z,16.82
2023-08-06T08:07:02.242Z,16.87
2023-08-06T08:09:49.650Z,17.21
2023-08-06T08:12:36.541Z,16.27
2023-08-06T08:15:23.588Z,15.79
2023-08-06T08:18:10.451Z,16.39
2023-08-06T08:20:57.359Z,15.68
2023-08-06T08:23:45.009Z,15.43
2023-08-06T08:26:31.936Z,15.42
2023-08-06T08:29:20.386Z,15.39
2023-08-06T08:32:07.319Z,15.35
2023-08-06T08:34:54.227Z,15.15
2023-08-06T08:37:41.114Z,15.64
2023-08-06T08:40:33.795Z,15.97
2023-08-06T08:43:24.622Z,15.97
2023-08-06T08:46:14.077Z,16.01
2023-08-06T08:49:01.741Z,15.79
2023-08-06T08:51:50.446Z,15.70
2023-08-06T08:54:39.048Z,15.55
2023-08-06T08:57:26.033Z,15.83
2023-08-06T09:00:13.099Z,16.00
2023-08-06T09:03:01.795Z,16.22
2023-08-06T09:05:53.070Z,16.17
2023-08-06T09:08:52.379Z,15.84
2023-08-06T09:11:44.263Z,16.30
2023-08-06T09:14:31.164Z,15.66
2023-08-06T09:17:20.886Z,15.71
2023-08-06T09:20:15.203Z,16.05
2023-08-06T09:23:11.775Z,16.09
2023-08-06T09:25:59.107Z,16.46
2023-08-06T09:28:46.063Z,17.13
2023-08-06T09:31:46.283Z,16.75
2023-08-06T09:34:33.208Z,16.58
2023-08-06T09:37:20.087Z,16.46
2023-08-06T09:40:25.685Z,16.49
2023-08-06T09:43:12.753Z,16.59
2023-08-06T09:45:59.693Z,17.03
2023-08-06T09:48:51.487Z,17.25
2023-08-06T09:51:40.805Z,18.08
2023-08-06T09:54:28.638Z,18.26
2023-08-06T09:57:15.906Z,19.43
2023-08-06T10:00:03.446Z,18.36
2023-08-06T10:03:03.475Z,19.18
2023-08-06T10:05:50.737Z,18.10
2023-08-06T10:08:37.625Z,17.78
2023-08-06T10:11:26.738Z,17.87
2023-08-06T10:14:25.721Z,18.55
2023-08-06T10:17:12.858Z,17.17
2023-08-06T10:20:00.731Z,19.30
2023-08-06T10:23:01.530Z,18.67
2023-08-06T10:25:56.671Z,18.84
2023-08-06T10:28:43.605Z,18.23
2023-08-06T10:32:03.056Z,17.12
2023-08-06T10:34:59.690Z,17.25
2023-08-06T10:37:46.599Z,18.94
2023-08-06T10:40:34.437Z,19.06
2023-08-06T10:43:38.981Z,18.27
2023-08-06T10:46:29.204Z,17.49
2023-08-06T10:49:18.793Z,17.29
2023-08-06T10:52:06.506Z,17.64
2023-08-06T10:54:55.622Z,18.21
2023-08-06T10:57:42.550Z,17.93
2023-08-06T11:00:29.580Z,17.80
2023-08-06T11:03:16.532Z,17.60
2023-08-06T11:06:04.106Z,17.83
2023-08-06T11:08:55.325Z,17.99
2023-08-06T11:11:44.032Z,19.17
2023-08-06T11:14:31.873Z,18.77
2023-08-06T11:17:19.074Z,17.93
2023-08-06T11:20:06.476Z,17.84
2023-08-06T11:22:53.496Z,17.75
2023-08-06T11:25:47.144Z,17.36
2023-08-06T11:28:34.104Z,18.87
2023-08-06T11:31:22.113Z,19.37
2023-08-06T11:34:10.197Z,18.30
2023-08-06T11:36:58.301Z,17.29
2023-08-06T11:39:49.317Z,17.46
2023-08-06T11:42:36.803Z,17.85
2023-08-06T11:45:25.210Z,18.08
2023-08-06T11:48:12.051Z,19.66
2023-08-06T11:50:59.877Z,21.26
2023-08-06T11:53:51.026Z,20.24
2023-08-06T11:56:38.102Z,20.23
2023-08-06T11:59:27.267Z,18.45
2023-08-06T12:02:14.264Z,16.91
2023-08-06T12:05:12.154Z,16.28
2023-08-06T12:08:00.926Z,15.66
2023-08-06T12:10:47.952Z,15.48
2023-08-06T12:13:34.810Z,15.66
2023-08-06T12:16:22.970Z,15.96
2023-08-06T12:19:09.969Z,16.03
2023-08-06T12:21:57.037Z,16.95
2023-08-06T12:24:44.831Z,18.70
2023-08-06T12:27:31.749Z,20.10
2023-08-06T12:30:18.806Z,20.37
2023-08-06T12:33:05.851Z,19.99
2023-08-06T12:35:55.904Z,19.35
2023-08-06T12:38:42.768Z,18.85
2023-08-06T12:41:29.605Z,18.79
2023-08-06T12:44:16.598Z,18.06
2023-08-06T12:47:03.895Z,18.61
2023-08-06T12:49:50.817Z,19.06
2023-08-06T12:52:37.846Z,20.51
2023-08-06T12:55:24.907Z,19.70
2023-08-06T12:58:11.876Z,18.75
2023-08-06T13:00:58.784Z,18.97
2023-08-06T13:03:45.843Z,18.84
2023-08-06T13:06:37.507Z,18.28
2023-08-06T13:09:24.419Z,18.04
2023-08-06T13:12:11.329Z,17.87
2023-08-06T13:15:00.325Z,18.62
2023-08-06T13:17:47.366Z,18.85
2023-08-06T13:20:34.628Z,17.98
2023-08-06T13:23:22.174Z,18.25
2023-08-06T13:26:09.155Z,17.93
2023-08-06T13:28:56.548Z,17.88
2023-08-06T13:31:43.464Z,17.61
2023-08-06T13:34:30.402Z,17.32
2023-08-06T13:37:17.522Z,16.40
2023-08-06T13:40:04.916Z,16.05
2023-08-06T13:42:51.858Z,16.38
2023-08-06T13:45:39.207Z,16.23
2023-08-06T13:48:26.263Z,16.23
2023-08-06T13:51:13.884Z,16.41
2023-08-06T13:54:01.158Z,16.02
2023-08-06T13:56:47.992Z,15.97
2023-08-06T13:59:34.860Z,15.95
2023-08-06T14:02:21.997Z,15.86
2023-08-06T14:05:09.043Z,15.62
2023-08-06T14:07:56.454Z,15.41
2023-08-06T14:10:43.571Z,14.83
2023-08-06T14:13:30.714Z,14.99
2023-08-06T14:16:17.808Z,14.83
2023-08-06T14:19:04.996Z,14.79
2023-08-06T14:21:52.298Z,14.75
2023-08-06T14:24:39.247Z,14.53
2023-08-06T14:27:26.284Z,14.91
2023-08-06T14:30:16.258Z,14.84
2023-08-06T14:33:17.118Z,14.58
2023-08-06T14:36:12.460Z,14.73
2023-08-06T14:39:00.748Z,14.71
2023-08-06T14:41:48.344Z,14.75
2023-08-06T14:44:35.262Z,14.71
2023-08-06T14:47:22.344Z,14.69
2023-08-06T14:50:09.701Z,14.64
2023-08-06T14:52:56.844Z,14.44
2023-08-06T14:55:44.406Z,14.64
2023-08-06T14:58:31.385Z,14.79
2023-08-06T15:01:18.684Z,14.76
2023-08-06T15:04:05.755Z,15.05
2023-08-06T15:06:53.011Z,14.71
2023-08-06T15:09:55.583Z,14.93
2023-08-06T15:12:49.591Z,15.05
2023-08-06T15:15:37.126Z,15.17
2023-08-06T15:18:23.982Z,15.18
2023-08-06T15:21:11.571Z,15.12
2023-08-06T15:23:58.614Z,15.16
2023-08-06T15:26:45.631Z,15.07
2023-08-06T15:29:32.777Z,15.11
2023-08-06T15:32:19.846Z,15.05
2023-08-06T15:35:07.444Z,15.20
2023-08-06T15:37:54.330Z,15.12
2023-08-06T15:40:41.388Z,15.25
2023-08-06T15:43:28.551Z,15.59
2023-08-06T15:46:16.661Z,15.70
2023-08-06T15:49:04.287Z,15.26
2023-08-06T15:51:51.273Z,15.38
2023-08-06T15:55:04.006Z,15.46
2023-08-06T15:57:50.948Z,15.31
2023-08-06T16:00:38.016Z,15.25
2023-08-06T16:03:25.040Z,15.21
2023-08-06T16:06:12.142Z,15.26
2023-08-06T16:08:59.097Z,15.20
2023-08-06T16:11:46.296Z,15.26
2023-08-06T16:14:33.196Z,15.10
2023-08-06T16:17:22.486Z,15.35
2023-08-06T16:20:11.129Z,15.29
2023-08-06T16:22:58.030Z,15.43
2023-08-06T16:25:46.108Z,15.47
2023-08-06T16:28:32.972Z,15.59
2023-08-06T16:31:20.777Z,15.40
2023-08-06T16:34:07.938Z,15.24
2023-08-06T16:36:55.207Z,15.18
2023-08-06T16:39:42.607Z,15.32
2023-08-06T16:42:30.276Z,15.47
2023-08-06T16:45:17.582Z,15.56
2023-08-06T16:48:07.648Z,15.53
2023-08-06T16:50:56.093Z,15.57
2023-08-06T16:53:44.760Z,15.18
2023-08-06T16:56:31.643Z,15.19
2023-08-06T16:59:20.206Z,15.26
2023-08-06T17:02:07.359Z,15.40
2023-08-06T17:04:54.672Z,15.25
2023-08-06T17:07:44.352Z,15.16
2023-08-06T17:10:31.637Z,14.88
2023-08-06T17:13:21.267Z,15.10
2023-08-06T17:16:08.438Z,15.07
2023-08-06T17:18:55.499Z,14.98
2023-08-06T17:21:42.373Z,14.82
2023-08-06T17:24:29.274Z,14.87
2023-08-06T17:27:16.493Z,14.83
2023-08-06T17:30:03.714Z,14.99
2023-08-06T17:32:50.688Z,15.01
2023-08-06T17:35:41.133Z,14.89
2023-08-06T17:38:27.984Z,14.79
2023-08-06T17:41:14.919Z,14.69
2023-08-06T17:44:01.829Z,14.81
2023-08-06T17:46:48.746Z,14.67
2023-08-06T17:49:35.676Z,14.65
2023-08-06T17:52:22.676Z,14.78
2023-08-06T17:55:09.645Z,14.78
2023-08-06T17:57:56.541Z,14.61
2023-08-06T18:00:45.564Z,14.60
2023-08-06T18:03:35.126Z,14.46
2023-08-06T18:06:22.143Z,14.64
2023-08-06T18:09:09.009Z,14.40
2023-08-06T18:11:55.864Z,14.53
2023-08-06T18:14:42.743Z,14.48
2023-08-06T18:17:29.666Z,14.42
2023-08-06T18:20:19.668Z,14.49
2023-08-06T18:23:06.670Z,14.24
2023-08-06T18:25:57.221Z,14.24
2023-08-06T18:28:45.913Z,14.23
2023-08-06T18:31:32.842Z,14.19
2023-08-06T18:34:19.702Z,14.28
2023-08-06T18:37:07.539Z,14.23
2023-08-06T18:40:02.134Z,14.35
2023-08-06T18:42:49.271Z,14.52
2023-08-06T18:45:40.217Z,14.28
2023-08-06T18:48:27.227Z,14.22
2023-08-06T18:51:14.223Z,14.11
2023-08-06T18:54:01.191Z,14.24
2023-08-06T18:56:48.075Z,14.39
2023-08-06T18:59:34.988Z,14.19
2023-08-06T19:02:21.971Z,14.02
2023-08-06T19:05:09.485Z,14.15
2023-08-06T19:07:56.382Z,14.05
2023-08-06T19:10:43.421Z,13.85
2023-08-06T19:13:30.652Z,14.02
2023-08-06T19:16:17.640Z,13.78
2023-08-06T19:19:04.828Z,13.93
2023-08-06T19:21:53.479Z,13.92
2023-08-06T19:24:41.355Z,13.80
2023-08-06T19:27:28.350Z,13.73
2023-08-06T19:30:15.371Z,13.59
2023-08-06T19:33:04.108Z,13.48
2023-08-06T19:35:54.167Z,13.50
2023-08-06T19:38:41.029Z,13.46
2023-08-06T19:41:27.960Z,13.36
2023-08-06T19:44:15.039Z,13.32
2023-08-06T19:47:01.927Z,13.17
2023-08-06T19:49:48.818Z,13.20
2023-08-06T19:52:35.702Z,13.03
2023-08-06T19:55:22.602Z,12.99
2023-08-06T19:58:09.829Z,13.00
2023-08-06T20:00:59.654Z,12.81
